createdAt,value
2023-04-15T00:01:00.036Z,99539.05
2023-04-15T00:03:30.229Z,99538.72
2023-04-15T00:06:00.127Z,99533.31
2023-04-15T00:08:29.193Z,99537.00
2023-04-15T00:10:59.693Z,99538.05
2023-04-15T00:13:28.609Z,99534.02
2023-04-15T00:15:56.885Z,99535.77
2023-04-15T00:18:25.670Z,99535.63
2023-04-15T00:20:54.687Z,99534.95
2023-04-15T00:23:23.114Z,99536.20
2023-04-15T00:25:51.308Z,99538.81
2023-04-15T00:28:19.879Z,99535.17
2023-04-15T00:30:48.228Z,99536.92
2023-04-15T00:33:16.830Z,99537.63
2023-04-15T00:35:45.230Z,99535.02
2023-04-15T00:38:13.407Z,99533.27
2023-04-15T00:40:41.965Z,99535.73
2023-04-15T00:43:10.424Z,99538.36
2023-04-15T00:45:38.630Z,99541.70
2023-04-15T00:48:07.332Z,99546.61
2023-04-15T00:50:35.830Z,99544.00
2023-04-15T00:53:04.079Z,99548.73
2023-04-15T00:55:32.395Z,99551.35
2023-04-15T00:58:00.774Z,99549.09
2023-04-15T01:00:30.562Z,99547.02
2023-04-15T01:02:58.960Z,99547.73
2023-04-15T01:05:28.163Z,99545.29
2023-04-15T01:07:56.466Z,99547.56
2023-04-15T01:10:24.661Z,99546.54
2023-04-15T01:12:53.378Z,99546.20
2023-04-15T01:15:22.167Z,99544.64
2023-04-15T01:17:51.005Z,99545.16
2023-04-15T01:20:19.682Z,99546.75
2023-04-15T01:22:49.294Z,99550.07
2023-04-15T01:25:33.653Z,99549.89
2023-04-15T01:28:02.427Z,99547.64
2023-04-15T01:30:34.951Z,99548.52
2023-04-15T01:33:04.015Z,99548.52
2023-04-15T01:35:33.138Z,99549.22
2023-04-15T01:38:06.687Z,99550.63
2023-04-15T01:40:36.058Z,99551.14
2023-04-15T01:43:04.725Z,99550.95
2023-04-15T01:45:32.954Z,99544.67
2023-04-15T01:48:01.618Z,99547.98
2023-04-15T01:50:29.835Z,99547.11
2023-04-15T01:52:58.577Z,99548.50
2023-04-15T01:55:27.316Z,99542.23
2023-04-15T01:57:55.504Z,99541.00
2023-04-15T02:00:24.338Z,99540.48
2023-04-15T02:02:52.689Z,99541.16
2023-04-15T02:05:21.077Z,99541.17
2023-04-15T02:07:49.710Z,99540.48
2023-04-15T02:10:18.139Z,99541.52
2023-04-15T02:12:46.791Z,99541.00
2023-04-15T02:15:15.715Z,99540.13
2023-04-15T02:17:46.192Z,99546.05
2023-04-15T02:20:15.677Z,99542.56
2023-04-15T02:22:44.082Z,99539.08
2023-04-15T02:25:12.435Z,99544.31
2023-04-15T02:27:40.708Z,99543.42
2023-04-15T02:30:09.482Z,99543.27
2023-04-15T02:32:38.434Z,99542.91
2023-04-15T02:35:09.577Z,99542.04
2023-04-15T02:37:43.894Z,99544.47
2023-04-15T02:40:13.576Z,99546.72
2023-04-15T02:42:44.440Z,99542.54
2023-04-15T02:45:13.234Z,99545.31
2023-04-15T02:47:41.901Z,99543.23
2023-04-15T02:50:13.361Z,99544.79
2023-04-15T02:52:42.639Z,99546.88
2023-04-15T02:55:11.304Z,99546.17
2023-04-15T02:57:40.932Z,99547.75
2023-04-15T03:00:11.876Z,99547.92
2023-04-15T03:02:42.442Z,99551.56
2023-04-15T03:05:15.174Z,99555.06
2023-04-15T03:07:43.556Z,99552.79
2023-04-15T03:10:11.931Z,99550.52
2023-04-15T03:12:40.967Z,99547.57
2023-04-15T03:15:10.203Z,99554.02
2023-04-15T03:17:39.348Z,99556.46
2023-04-15T03:20:08.244Z,99554.55
2023-04-15T03:22:36.684Z,99555.08
2023-04-15T03:25:05.299Z,99556.82
2023-04-15T03:27:33.632Z,99559.77
2023-04-15T03:30:01.915Z,99561.87
2023-04-15T03:32:30.215Z,99557.16
2023-04-15T03:34:58.625Z,99559.25
2023-04-15T03:37:26.790Z,99556.64
2023-04-15T03:39:54.978Z,99562.04
2023-04-15T03:42:23.520Z,99560.65
2023-04-15T03:44:51.756Z,99563.78
2023-04-15T03:47:20.019Z,99561.16
2023-04-15T03:49:48.340Z,99560.98
2023-04-15T03:52:16.632Z,99558.19
2023-04-15T03:54:44.826Z,99562.71
2023-04-15T03:57:13.142Z,99561.48
2023-04-15T03:59:41.379Z,99564.42
2023-04-15T04:02:09.810Z,99567.37
2023-04-15T04:04:38.225Z,99567.70
2023-04-15T04:07:06.640Z,99571.01
2023-04-15T04:09:34.912Z,99574.66
2023-04-15T04:12:04.932Z,99574.13
2023-04-15T04:14:33.089Z,99576.39
2023-04-15T04:17:01.721Z,99577.41
2023-04-15T04:19:31.122Z,99580.19
2023-04-15T04:21:59.346Z,99577.23
2023-04-15T04:24:27.543Z,99575.66
2023-04-15T04:26:57.487Z,99574.81
2023-04-15T04:29:25.755Z,99575.68
2023-04-15T04:31:54.215Z,99573.96
2023-04-15T04:34:22.455Z,99575.20
2023-04-15T04:36:50.826Z,99573.12
2023-04-15T04:39:19.075Z,99571.91
2023-04-15T04:41:47.332Z,99577.48
2023-04-15T04:44:15.557Z,99576.27
2023-04-15T04:46:43.999Z,99576.64
2023-04-15T04:49:12.195Z,99579.60
2023-04-15T04:51:40.721Z,99581.00
2023-04-15T04:54:09.831Z,99582.40
2023-04-15T04:56:39.950Z,99582.59
2023-04-15T04:59:08.310Z,99580.50
2023-04-15T05:01:36.737Z,99581.73
2023-04-15T05:04:05.668Z,99586.77
2023-04-15T05:06:36.040Z,99583.13
2023-04-15T05:09:04.393Z,99582.43
2023-04-15T05:11:32.691Z,99584.36
2023-04-15T05:14:02.527Z,99585.40
2023-04-15T05:16:30.710Z,99576.00
2023-04-15T05:18:59.098Z,99581.42
2023-04-15T05:21:27.916Z,99580.20
2023-04-15T05:23:56.178Z,99581.95
2023-04-15T05:26:24.583Z,99582.13
2023-04-15T05:28:52.791Z,99584.58
2023-04-15T05:31:21.316Z,99586.16
2023-04-15T05:33:49.685Z,99580.58
2023-04-15T05:36:17.873Z,99584.59
2023-04-15T05:38:46.921Z,99583.40
2023-04-15T05:41:18.385Z,99580.97
2023-04-15T05:43:48.157Z,99582.02
2023-04-15T05:46:16.723Z,99582.71
2023-04-15T05:48:44.927Z,99585.84
2023-04-15T05:51:13.314Z,99586.02
2023-04-15T05:53:42.067Z,99587.59
2023-04-15T05:56:10.256Z,99586.88
2023-04-15T05:58:41.886Z,99588.09
2023-04-15T06:01:10.878Z,99588.09
2023-04-15T06:03:40.046Z,99587.55
2023-04-15T06:06:09.016Z,99589.64
2023-04-15T06:08:38.813Z,99592.95
2023-04-15T06:11:07.489Z,99594.34
2023-04-15T06:13:35.954Z,99597.13
2023-04-15T06:16:04.559Z,99597.80
2023-04-15T06:18:32.954Z,99597.98
2023-04-15T06:21:01.341Z,99599.00
2023-04-15T06:23:29.945Z,99599.53
2023-04-15T06:25:58.373Z,99601.10
2023-04-15T06:28:26.614Z,99599.86
2023-04-15T06:30:55.971Z,99604.56
2023-04-15T06:33:25.107Z,99598.27
2023-04-15T06:35:53.717Z,99605.95
2023-04-15T06:38:21.954Z,99605.23
2023-04-15T06:40:50.671Z,99608.37
2023-04-15T06:43:19.005Z,99609.58
2023-04-15T06:45:47.423Z,99608.86
2023-04-15T06:48:15.832Z,99611.83
2023-04-15T06:50:46.579Z,99607.45
2023-04-15T06:53:14.904Z,99609.19
2023-04-15T06:55:43.131Z,99610.57
2023-04-15T06:58:11.603Z,99614.23
2023-04-15T07:00:39.844Z,99615.42
2023-04-15T07:03:11.426Z,99621.02
2023-04-15T07:05:39.918Z,99622.94
2023-04-15T07:08:08.224Z,99626.23
2023-04-15T07:10:37.366Z,99623.09
2023-04-15T07:13:07.378Z,99629.36
2023-04-15T07:15:36.029Z,99628.30
2023-04-15T07:18:04.413Z,99627.95
2023-04-15T07:20:32.843Z,99628.29
2023-04-15T07:23:01.101Z,99630.02
2023-04-15T07:25:29.327Z,99631.06
2023-04-15T07:27:57.765Z,99632.29
2023-04-15T07:30:28.266Z,99634.91
2023-04-15T07:32:59.612Z,99638.41
2023-04-15T07:35:28.566Z,99634.92
2023-04-15T07:37:59.682Z,99638.39
2023-04-15T07:40:32.110Z,99636.30
2023-04-15T07:43:00.522Z,99638.91
2023-04-15T07:45:29.033Z,99638.04
2023-04-15T07:47:57.513Z,99641.17
2023-04-15T07:50:33.857Z,99640.98
2023-04-15T07:53:02.943Z,99644.66
2023-04-15T07:55:32.501Z,99643.95
2023-04-15T07:58:03.640Z,99644.11
2023-04-15T08:00:32.365Z,99643.40
2023-04-15T08:03:00.972Z,99641.47
2023-04-15T08:05:29.783Z,99642.86
2023-04-15T08:07:58.960Z,99642.00
2023-04-15T08:10:27.569Z,99645.31
2023-04-15T08:12:56.675Z,99645.48
2023-04-15T08:15:25.201Z,99650.36
2023-04-15T08:17:54.038Z,99647.04
2023-04-15T08:20:22.476Z,99654.04
2023-04-15T08:22:52.335Z,99655.61
2023-04-15T08:25:21.195Z,99658.57
2023-04-15T08:27:49.669Z,99658.20
2023-04-15T08:30:18.797Z,99664.14
2023-04-15T08:32:47.645Z,99659.59
2023-04-15T08:35:16.173Z,99660.29
2023-04-15T08:37:44.584Z,99665.04
2023-04-15T08:40:13.004Z,99668.36
2023-04-15T08:42:47.454Z,99669.25
2023-04-15T08:45:17.486Z,99671.19
2023-04-15T08:47:48.516Z,99674.52
2023-04-15T08:50:17.562Z,99678.70
2023-04-15T08:52:45.842Z,99677.31
2023-04-15T08:55:15.896Z,99678.02
2023-04-15T08:57:45.180Z,99679.06
2023-04-15T09:00:14.305Z,99678.36
2023-04-15T09:02:43.556Z,99678.52
2023-04-15T09:05:12.565Z,99676.59
2023-04-15T09:07:41.441Z,99682.17
2023-04-15T09:10:10.321Z,99684.23
2023-04-15T09:12:38.722Z,99679.70
2023-04-15T09:15:09.141Z,99683.36
2023-04-15T09:17:44.234Z,99683.17
2023-04-15T09:20:14.803Z,99679.84
2023-04-15T09:22:47.269Z,99684.55
2023-04-15T09:25:15.512Z,99683.17
2023-04-15T09:27:54.679Z,99688.77
2023-04-15T09:30:24.053Z,99691.04
2023-04-15T09:33:02.378Z,99686.81
2023-04-15T09:35:31.212Z,99687.34
2023-04-15T09:38:10.574Z,99691.66
2023-04-15T09:40:41.320Z,99689.02
2023-04-15T09:43:13.274Z,99688.14
2023-04-15T09:45:54.441Z,99687.97
2023-04-15T09:48:27.963Z,99690.08
2023-04-15T09:51:02.173Z,99691.48
2023-04-15T09:53:34.374Z,99691.99
2023-04-15T09:56:03.857Z,99692.66
2023-04-15T09:58:35.317Z,99693.33
2023-04-15T10:01:06.384Z,99692.61
2023-04-15T10:03:37.797Z,99691.55
2023-04-15T10:06:06.429Z,99694.66
2023-04-15T10:08:35.312Z,99694.31
2023-04-15T10:11:05.436Z,99696.75
2023-04-15T10:13:35.338Z,99697.61
2023-04-15T10:16:12.089Z,99703.02
2023-04-15T10:18:46.415Z,99694.96
2023-04-15T10:21:18.839Z,99700.71
2023-04-15T10:23:47.971Z,99699.98
2023-04-15T10:26:20.274Z,99695.78
2023-04-15T10:28:49.211Z,99697.19
2023-04-15T10:31:18.712Z,99697.71
2023-04-15T10:33:49.446Z,99694.91
2023-04-15T10:36:20.188Z,99698.23
2023-04-15T10:38:48.711Z,99701.21
2023-04-15T10:41:21.830Z,99701.38
2023-04-15T10:44:00.000Z,99705.92
2023-04-15T10:46:39.422Z,99706.95
2023-04-15T10:49:13.250Z,99705.70
2023-04-15T10:51:44.004Z,99701.67
2023-04-15T10:54:17.791Z,99704.27
2023-04-15T10:56:46.367Z,99707.71
2023-04-15T10:59:16.648Z,99708.59
2023-04-15T11:01:53.355Z,99707.85
2023-04-15T11:04:59.700Z,99711.34
2023-04-15T11:07:34.833Z,99715.36
2023-04-15T11:10:05.064Z,99711.67
2023-04-15T11:12:37.272Z,99710.96
2023-04-15T11:15:32.089Z,99716.06
2023-04-15T11:18:24.930Z,99719.25
2023-04-15T11:20:57.580Z,99717.69
2023-04-15T11:23:40.268Z,99722.08
2023-04-15T11:26:12.142Z,99723.64
2023-04-15T11:28:42.498Z,99721.88
2023-04-15T11:31:15.841Z,99719.71
2023-04-15T11:33:47.964Z,99724.94
2023-04-15T11:36:16.645Z,99729.14
2023-04-15T11:38:47.638Z,99728.95
2023-04-15T11:41:21.137Z,99734.04
2023-04-15T11:43:50.732Z,99738.57
2023-04-15T11:46:19.792Z,99737.31
2023-04-15T11:48:48.265Z,99739.45
2023-04-15T11:51:16.830Z,99737.88
2023-04-15T11:53:49.603Z,99742.06
2023-04-15T11:56:22.196Z,99744.70
2023-04-15T11:58:57.321Z,99748.20
2023-04-15T12:01:36.949Z,99748.58
2023-04-15T12:04:18.678Z,99750.16
2023-04-15T12:06:49.103Z,99750.34
2023-04-15T12:09:17.677Z,99752.45
2023-04-15T12:11:47.781Z,99751.42
2023-04-15T12:14:16.024Z,99754.78
2023-04-15T12:16:51.752Z,99754.63
2023-04-15T12:19:39.419Z,99760.40
2023-04-15T12:22:17.910Z,99760.40
2023-04-15T12:24:48.774Z,99767.02
2023-04-15T12:27:17.853Z,99765.05
2023-04-15T12:29:46.343Z,99768.52
2023-04-15T12:32:16.793Z,99774.83
2023-04-15T12:34:50.741Z,99781.32
2023-04-15T12:37:19.753Z,99779.39
2023-04-15T12:39:49.436Z,99782.72
2023-04-15T12:42:18.282Z,99786.94
2023-04-15T12:44:47.211Z,99789.39
2023-04-15T12:47:22.092Z,99794.27
2023-04-15T12:49:53.956Z,99794.30
2023-04-15T12:52:22.480Z,99794.48
2023-04-15T12:54:50.891Z,99793.98
2023-04-15T12:57:19.251Z,99793.13
2023-04-15T12:59:47.808Z,99796.47
2023-04-15T13:02:16.216Z,99803.10
2023-04-15T13:04:47.747Z,99806.80
2023-04-15T13:07:16.108Z,99806.44
2023-04-15T13:09:45.112Z,99809.75
2023-04-15T13:12:14.714Z,99813.42
2023-04-15T13:14:43.326Z,99819.03
2023-04-15T13:17:12.459Z,99813.27
2023-04-15T13:19:43.653Z,99819.77
2023-04-15T13:22:12.868Z,99820.12
2023-04-15T13:24:41.428Z,99820.13
2023-04-15T13:27:13.388Z,99818.23
2023-04-15T13:29:41.812Z,99819.66
2023-04-15T13:32:10.250Z,99822.30
2023-04-15T13:34:38.547Z,99818.80
2023-04-15T13:37:08.222Z,99821.61
2023-04-15T13:39:38.808Z,99822.14
2023-04-15T13:42:07.065Z,99820.73
2023-04-15T13:44:35.834Z,99824.08
2023-04-15T13:47:04.201Z,99824.61
2023-04-15T13:49:32.456Z,99826.71
2023-04-15T13:52:00.916Z,99828.10
2023-04-15T13:54:37.583Z,99831.08
2023-04-15T13:57:07.107Z,99827.55
2023-04-15T13:59:35.693Z,99830.34
2023-04-15T14:02:04.210Z,99827.16
2023-04-15T14:04:33.198Z,99835.39
2023-04-15T14:07:03.347Z,99832.95
2023-04-15T14:12:03.200Z,99838.02
2023-04-15T14:14:31.800Z,99843.09
2023-04-15T14:17:00.358Z,99842.73
2023-04-15T14:19:31.384Z,99841.67
2023-04-15T14:21:59.806Z,99845.86
2023-04-15T14:24:28.055Z,99846.19
2023-04-15T14:26:57.744Z,99848.11
2023-04-15T14:29:26.585Z,99852.98
2023-04-15T14:32:04.216Z,99852.09
2023-04-15T14:34:40.942Z,99855.59
2023-04-15T14:37:09.445Z,99859.10
2023-04-15T14:39:37.852Z,99855.05
2023-04-15T14:42:06.365Z,99861.19
2023-04-15T14:44:34.679Z,99865.74
2023-04-15T14:47:03.095Z,99867.66
2023-04-15T14:49:32.374Z,99867.66
2023-04-15T14:52:00.571Z,99870.96
2023-04-15T14:54:29.045Z,99870.25
2023-04-15T14:56:57.526Z,99876.17
2023-04-15T14:59:25.804Z,99874.77
2023-04-15T15:01:54.188Z,99876.34
2023-04-15T15:04:22.628Z,99877.77
2023-04-15T15:06:51.134Z,99879.53
2023-04-15T15:09:20.040Z,99887.95
2023-04-15T15:11:48.444Z,99886.89
2023-04-15T15:14:17.412Z,99888.99
2023-04-15T15:16:45.644Z,99887.77
2023-04-15T15:19:14.517Z,99894.77
2023-04-15T15:21:42.865Z,99895.83
2023-04-15T15:24:11.161Z,99894.61
2023-04-15T15:26:40.357Z,99895.52
2023-04-15T15:29:08.668Z,99900.60
2023-04-15T15:31:36.916Z,99899.91
2023-04-15T15:34:05.363Z,99903.23
2023-04-15T15:36:34.070Z,99908.14
2023-04-15T15:39:02.636Z,99908.14
2023-04-15T15:41:33.583Z,99912.88
2023-04-15T15:44:01.850Z,99913.58
2023-04-15T15:46:31.695Z,99909.40
2023-04-15T15:49:00.087Z,99913.09
2023-04-15T15:51:28.991Z,99916.07
2023-04-15T15:53:57.161Z,99917.66
2023-04-15T15:56:25.469Z,99922.77
2023-04-15T15:58:53.785Z,99924.52
2023-04-15T16:01:22.229Z,99923.63
2023-04-15T16:03:51.143Z,99925.73
2023-04-15T16:06:19.693Z,99930.46
2023-04-15T16:08:47.854Z,99933.98
2023-04-15T16:11:16.273Z,99937.67
2023-04-15T16:13:44.596Z,99937.51
2023-04-15T16:16:12.879Z,99937.34
2023-04-15T16:18:41.498Z,99940.67
2023-04-15T16:21:09.864Z,99939.80
2023-04-15T16:23:38.329Z,99943.84
2023-04-15T16:26:07.490Z,99943.66
2023-04-15T16:28:36.487Z,99945.79
2023-04-15T16:31:04.806Z,99949.30
2023-04-15T16:33:33.105Z,99947.04
2023-04-15T16:36:01.421Z,99947.56
2023-04-15T16:38:30.089Z,99951.05
2023-04-15T16:41:00.682Z,99956.66
2023-04-15T16:43:29.737Z,99956.84
2023-04-15T16:49:44.514Z,99965.77
2023-04-15T16:56:54.917Z,99968.40
2023-04-15T16:59:38.199Z,99975.03
2023-04-15T17:27:53.533Z,99999.00
2023-04-15T17:30:22.069Z,100007.41
2023-04-15T17:32:51.974Z,100012.48
2023-04-15T17:35:20.133Z,100013.72
2023-04-15T17:37:48.369Z,100020.02
2023-04-15T17:40:16.865Z,100018.60
2023-04-15T17:42:45.241Z,100022.95
2023-04-15T17:45:15.262Z,100022.96
2023-04-15T17:47:43.808Z,100026.80
2023-04-15T17:50:12.152Z,100031.70
2023-04-15T17:52:40.716Z,100030.48
2023-04-15T17:55:10.186Z,100033.45
2023-04-15T17:57:38.522Z,100036.93
2023-04-15T18:00:09.031Z,100042.52
2023-04-15T18:02:37.719Z,100040.08
2023-04-15T18:05:06.873Z,100049.17
2023-04-15T18:07:35.573Z,100054.77
2023-04-15T18:10:04.463Z,100056.87
2023-04-15T18:12:32.898Z,100061.08
2023-04-15T18:15:01.226Z,100064.91
2023-04-15T18:17:29.989Z,100073.30
2023-04-15T18:19:58.325Z,100074.52
2023-04-15T18:22:26.730Z,100080.81
2023-04-15T18:24:55.061Z,100084.13
2023-04-15T18:27:23.366Z,100084.84
2023-04-15T18:29:52.035Z,100082.38
2023-04-15T18:32:20.491Z,100086.92
2023-04-15T18:34:48.930Z,100087.44
2023-04-15T18:37:17.249Z,100090.76
2023-04-15T18:39:45.576Z,100093.92
2023-04-15T18:42:14.017Z,100096.00
2023-04-15T18:44:42.334Z,100095.84
2023-04-15T18:47:10.739Z,100096.90
2023-04-15T18:49:39.214Z,100102.67
2023-04-15T18:52:09.770Z,100103.71
2023-04-15T18:54:38.359Z,100103.90
2023-04-15T18:57:07.354Z,100108.44
2023-04-15T18:59:43.637Z,100107.92
2023-04-15T19:02:14.861Z,100109.33
2023-04-15T19:04:43.397Z,100113.16
2023-04-15T19:07:12.550Z,100114.54
2023-04-15T19:09:41.638Z,100116.11
2023-04-15T19:12:10.043Z,100118.21
2023-04-15T19:14:38.538Z,100121.18
2023-04-15T19:17:06.983Z,100126.27
2023-04-15T19:19:35.477Z,100128.86
2023-04-15T19:22:06.995Z,100126.60
2023-04-15T19:24:37.033Z,100129.92
2023-04-15T19:27:05.553Z,100132.35
2023-04-15T19:29:33.970Z,100138.80
2023-04-15T19:32:02.384Z,100138.42
2023-04-15T19:34:31.502Z,100137.91
2023-04-15T19:37:02.091Z,100139.98
2023-04-15T19:39:30.804Z,100141.39
2023-04-15T19:41:59.244Z,100140.33
2023-04-15T19:44:27.460Z,100140.84
2023-04-15T19:46:56.003Z,100143.98
2023-04-15T19:49:26.778Z,100141.01
2023-04-15T19:51:55.055Z,100148.02
2023-04-15T19:54:24.318Z,100145.03
2023-04-15T19:56:52.609Z,100147.30
2023-04-15T19:59:21.197Z,100149.40
2023-04-15T20:01:49.676Z,100151.84
2023-04-15T20:04:43.265Z,100149.23
2023-04-15T20:07:11.720Z,100145.55
2023-04-15T20:44:51.965Z,100156.75
2023-04-15T20:47:24.886Z,100163.38
2023-04-15T20:49:53.398Z,100165.48
2023-04-15T20:53:07.367Z,100163.55
2023-04-15T20:55:56.709Z,100163.39
2023-04-15T20:58:26.583Z,100166.55
2023-04-15T21:00:55.397Z,100169.02
2023-04-15T21:03:24.661Z,100169.19
2023-04-15T21:06:02.488Z,100167.43
2023-04-15T21:08:31.720Z,100167.61
2023-04-15T21:11:00.276Z,100167.61
2023-04-15T21:13:28.749Z,100170.59
2023-04-15T21:15:58.636Z,100174.62
2023-04-15T21:18:27.368Z,100174.81
2023-04-15T21:21:00.400Z,100174.98
2023-04-15T21:23:36.047Z,100177.44
2023-04-15T21:26:04.536Z,100179.55
2023-04-15T21:28:33.423Z,100180.05
2023-04-15T21:31:01.797Z,100179.17
2023-04-15T21:33:30.166Z,100185.31
2023-04-15T21:35:58.570Z,100188.45
2023-04-15T21:38:26.952Z,100192.30
2023-04-15T21:40:55.373Z,100191.95
2023-04-15T21:43:25.855Z,100196.13
2023-04-15T21:46:23.685Z,100200.15
2023-04-15T21:48:42.665Z,100201.70
2023-04-15T21:51:11.559Z,100204.34
2023-04-15T21:53:40.585Z,100206.28
2023-04-15T21:56:09.061Z,100213.27
2023-04-15T21:58:37.400Z,100206.29
2023-04-15T22:01:05.991Z,100210.31
2023-04-15T22:03:35.356Z,100209.27
2023-04-15T22:06:04.194Z,100211.34
2023-04-15T22:08:41.341Z,100212.39
2023-04-15T22:11:27.628Z,100216.23
2023-04-15T22:13:59.708Z,100222.70
2023-04-15T22:16:28.619Z,100223.73
2023-04-15T22:18:57.137Z,100221.30
2023-04-15T22:21:25.698Z,100228.98
2023-04-15T22:24:32.963Z,100227.42
2023-04-15T22:26:42.771Z,100240.16
2023-04-15T22:29:11.318Z,100237.86
2023-04-15T22:31:39.697Z,100240.30
2023-04-15T22:34:08.778Z,100237.48
2023-04-15T22:36:37.193Z,100240.48
2023-04-15T22:39:06.218Z,100241.53
2023-04-15T22:41:34.828Z,100240.67
2023-04-15T22:44:03.544Z,100240.68
2023-04-15T22:46:31.889Z,100243.16
2023-04-15T22:49:00.257Z,100244.72
2023-04-15T22:51:28.944Z,100247.17
2023-04-15T22:53:57.437Z,100251.19
2023-04-15T22:56:26.743Z,100250.30
2023-04-15T22:58:54.960Z,100253.09
2023-04-15T23:01:23.310Z,100255.55
2023-04-15T23:03:56.729Z,100256.62
2023-04-15T23:06:30.279Z,100262.02
2023-04-15T23:08:58.709Z,100260.95
2023-04-15T23:11:27.052Z,100261.82
2023-04-15T23:13:55.367Z,100266.04
2023-04-15T23:16:23.940Z,100263.05
2023-04-15T23:18:52.267Z,100264.77
2023-04-15T23:21:21.053Z,100264.97
2023-04-15T23:23:49.273Z,100266.53
2023-04-15T23:26:17.458Z,100263.93
2023-04-15T23:28:45.733Z,100265.15
2023-04-15T23:31:14.023Z,100268.32
2023-04-15T23:33:42.311Z,100267.45
2023-04-15T23:36:10.511Z,100266.21
2023-04-15T23:38:40.694Z,100271.25
2023-04-15T23:41:10.070Z,100274.23
2023-04-15T23:43:38.374Z,100276.83
2023-04-15T23:46:06.944Z,100278.05
2023-04-15T23:48:35.119Z,100279.45
2023-04-15T23:51:03.796Z,100278.05
2023-04-15T23:53:32.188Z,100276.98
2023-04-15T23:56:00.532Z,100282.21
2023-04-15T23:58:28.887Z,100278.16
